»·PEaware :: BLADE19 KSPS-KSPS

BLADE19 :: KSPS-KSPS

FLIGHT INFORMATION

Flight Status: Arrived
Operator: Unknown
More flights by this operator :: More flights under this callsign
Pilot: 80 FTW ENJJPT (22981)
Aircraft: BEECH AIRCRAFT T-6A TEXAN
(TEX2)
More flights by this aircraft type
Origin: KSPS Sheppard AFB/Wichita Falls Mu
United States
Destination: KSPS Sheppard AFB/Wichita Falls Mu
United States
More flights between these airports :: More routes between these airports
Route: +HAK S1L
File this flight plan on PilotEdge
Remarks:
Altitude:
(Current/Filed)
0ft
Speed:
(Current/Filed)
0kts
Departed: 29-Jun-20 08:18 AM
Arrived: 29-Jun-20 09:08 AM
Distance/Time
Traveled:
1nm/0:50
Distance/Time
To Go:
Arrived

Flight Plot

Page will automatically refresh every two minutes.

Flight plan parsing failed; only flown route is shown


Map Options




Map Legend


Flown Route
Filed Route
Departure Airport
Arrival Airport
Navaid (VOR, NDB)
Fix

Horizontal Profiles

Position Reports

Time Latitude Longitude Heading Altitude Ground
Speed
29-Jun-20 08:14 34.007331 -98.501748 28 1022ft 32kts
29-Jun-20 08:15 34.010561 -98.495340 25 1022ft 5kts
29-Jun-20 08:16 34.010844 -98.494203 95 1022ft 0kts
29-Jun-20 08:17 34.003758 -98.489497 157 1146ft 124kts
29-Jun-20 08:18 34.007258 -98.478795 340 1915ft 124kts
29-Jun-20 08:19 34.016903 -98.496122 158 1155ft 117kts
29-Jun-20 08:20 33.982370 -98.477724 114 1760ft 176kts
29-Jun-20 08:21 34.024554 -98.476821 347 4090ft 173kts
29-Jun-20 08:22 34.004190 -98.489434 156 3822ft 125kts
29-Jun-20 08:23 34.018046 -98.492993 222 1582ft 138kts
29-Jun-20 08:24 33.997170 -98.476449 340 1935ft 153kts
29-Jun-20 08:25 34.023937 -98.495670 215 1488ft 126kts
29-Jun-20 08:26 33.989608 -98.482314 155 1514ft 174kts
29-Jun-20 08:27 33.960957 -98.433647 81 4259ft 175kts
29-Jun-20 08:28 34.005489 -98.441362 329 6066ft 219kts
29-Jun-20 08:29 34.062055 -98.471745 339 5969ft 212kts
29-Jun-20 08:30 34.116705 -98.497684 345 5947ft 214kts
29-Jun-20 08:31 34.175010 -98.527035 336 6044ft 225kts
29-Jun-20 08:32 34.225338 -98.573515 305 6003ft 223kts
29-Jun-20 08:33 34.260936 -98.636392 303 5951ft 221kts
29-Jun-20 08:34 34.297129 -98.700012 303 6003ft 217kts
29-Jun-20 08:35 34.337264 -98.759272 310 6076ft 214kts
29-Jun-20 08:36 34.377333 -98.818263 295 5447ft 217kts
29-Jun-20 08:37 34.404145 -98.885762 295 2570ft 212kts
29-Jun-20 08:38 34.410812 -98.948361 268 1694ft 149kts
29-Jun-20 08:39 34.386834 -98.987702 195 1723ft 133kts
29-Jun-20 08:40 34.353499 -98.989356 180 1258ft 98kts
29-Jun-20 08:41 34.327699 -98.956413 79 2329ft 200kts
29-Jun-20 08:42 34.386312 -98.946158 1 2198ft 211kts
29-Jun-20 08:43 34.402461 -98.986476 207 2249ft 200kts
29-Jun-20 08:44 34.349270 -98.979577 64 2176ft 180kts
29-Jun-20 08:45 34.367149 -98.989339 183 1455ft 127kts
29-Jun-20 08:46 34.329363 -98.982259 80 1715ft 194kts
29-Jun-20 08:47 34.340053 -98.917901 80 4370ft 202kts
29-Jun-20 08:48 34.332538 -98.845034 104 5029ft 216kts
29-Jun-20 08:49 34.313865 -98.764573 105 4974ft 256kts
29-Jun-20 08:50 34.293494 -98.676585 103 4949ft 265kts
29-Jun-20 08:51 34.273378 -98.587081 105 3233ft 258kts
29-Jun-20 08:52 34.253749 -98.506403 113 2637ft 222kts
29-Jun-20 08:53 34.199780 -98.495255 192 2018ft 200kts
29-Jun-20 08:54 34.144450 -98.513177 198 2047ft 205kts
29-Jun-20 08:55 34.085980 -98.524101 180 2021ft 209kts
29-Jun-20 08:56 34.028789 -98.502316 157 2027ft 209kts
29-Jun-20 08:57 34.005644 -98.456683 61 1975ft 202kts
29-Jun-20 08:58 34.059815 -98.474171 339 1993ft 208kts
29-Jun-20 08:59 34.036318 -98.505542 163 2075ft 203kts
29-Jun-20 09:00 34.011336 -98.478535 345 1935ft 142kts
29-Jun-20 09:01 34.015013 -98.495180 155 1106ft 109kts
29-Jun-20 09:02 33.994726 -98.474483 355 2003ft 159kts
29-Jun-20 09:03 34.027987 -98.492553 250 1620ft 129kts
29-Jun-20 09:04 34.002235 -98.489117 155 1022ft 53kts
29-Jun-20 09:05 33.993415 -98.487315 182 1022ft 54kts
29-Jun-20 09:06 33.988017 -98.490942 239 1022ft 42kts
29-Jun-20 09:07 33.995489 -98.499308 333 1022ft 35kts

Navigation Log

Ident Type
Flight plan parsing failed, navigation log unavailable